createdAt,value
2022-10-17T00:00:45.547Z,60.13
2022-10-17T00:03:34.364Z,63.47
2022-10-17T00:06:09.795Z,66.04
2022-10-17T00:08:42.885Z,64.41
2022-10-17T00:11:18.967Z,62.13
2022-10-17T00:13:52.056Z,58.52
2022-10-17T00:16:29.181Z,56.53
2022-10-17T00:19:01.337Z,57.10
2022-10-17T00:21:33.220Z,58.03
2022-10-17T00:24:05.223Z,58.98
2022-10-17T00:26:37.066Z,60.15
2022-10-17T00:29:08.892Z,63.39
2022-10-17T00:31:40.888Z,65.74
2022-10-17T00:34:12.591Z,64.13
2022-10-17T00:36:44.344Z,62.32
2022-10-17T00:39:16.084Z,60.64
2022-10-17T00:41:47.768Z,57.50
2022-10-17T00:44:54.662Z,55.82
2022-10-17T00:47:26.633Z,56.18
2022-10-17T00:49:59.617Z,57.70
2022-10-17T00:52:33.673Z,58.99
2022-10-17T00:55:10.143Z,60.00
2022-10-17T00:57:43.194Z,62.92
2022-10-17T01:00:18.444Z,65.90
2022-10-17T01:02:50.672Z,64.47
2022-10-17T01:05:23.033Z,61.99
2022-10-17T01:07:56.057Z,58.80
2022-10-17T01:10:34.443Z,56.87
2022-10-17T01:13:15.014Z,57.43
2022-10-17T01:15:58.142Z,58.31
2022-10-17T01:18:42.609Z,59.38
2022-10-17T01:21:40.409Z,60.79
2022-10-17T01:24:36.646Z,64.58
2022-10-17T01:27:30.611Z,67.36
2022-10-17T01:30:50.898Z,65.03
2022-10-17T01:33:33.769Z,62.64
2022-10-17T01:36:12.621Z,60.63
2022-10-17T01:38:48.778Z,57.36
2022-10-17T01:41:28.890Z,56.08
2022-10-17T01:44:05.537Z,56.63
2022-10-17T01:46:39.914Z,57.80
2022-10-17T01:49:14.225Z,59.08
2022-10-17T01:51:50.074Z,60.13
2022-10-17T01:54:25.933Z,64.10
2022-10-17T01:57:01.404Z,66.31
2022-10-17T01:59:41.632Z,63.46
2022-10-17T02:02:15.939Z,61.47
2022-10-17T02:04:49.664Z,60.24
2022-10-17T02:07:21.408Z,57.86
2022-10-17T02:09:53.412Z,56.69
2022-10-17T02:12:36.428Z,57.32
2022-10-17T02:15:17.985Z,58.46
2022-10-17T02:17:59.610Z,59.61
2022-10-17T02:20:38.710Z,63.12
2022-10-17T02:23:15.025Z,65.21
2022-10-17T02:25:55.237Z,64.12
2022-10-17T02:28:36.386Z,62.59
2022-10-17T02:31:14.869Z,61.50
2022-10-17T02:33:52.129Z,58.74
2022-10-17T02:36:27.535Z,57.03
2022-10-17T02:39:00.369Z,57.54
2022-10-17T02:41:34.931Z,58.62
2022-10-17T02:44:08.283Z,59.67
2022-10-17T02:46:43.535Z,60.74
2022-10-17T02:49:22.729Z,64.27
2022-10-17T02:52:02.204Z,66.05
2022-10-17T02:54:40.476Z,65.10
2022-10-17T02:57:19.733Z,63.34
2022-10-17T02:59:52.398Z,61.81
2022-10-17T03:02:24.104Z,60.43
2022-10-17T03:04:56.471Z,58.27
2022-10-17T03:07:28.257Z,57.10
2022-10-17T03:10:00.974Z,57.90
2022-10-17T03:12:33.781Z,58.97
2022-10-17T03:15:06.060Z,60.19
2022-10-17T03:17:39.210Z,63.38
2022-10-17T03:20:13.528Z,66.14
2022-10-17T03:22:45.340Z,64.60
2022-10-17T03:25:17.338Z,62.58
2022-10-17T03:27:49.184Z,60.73
2022-10-17T03:30:21.058Z,58.12
2022-10-17T03:32:53.526Z,56.77
2022-10-17T03:35:25.598Z,57.53
2022-10-17T03:37:58.958Z,58.74
2022-10-17T03:40:31.268Z,59.88
2022-10-17T03:43:03.044Z,63.29
2022-10-17T03:45:34.833Z,65.87
2022-10-17T03:48:07.624Z,64.33
2022-10-17T03:50:39.307Z,62.96
2022-10-17T03:53:12.122Z,61.86
2022-10-17T03:55:43.939Z,60.86
2022-10-17T03:58:15.653Z,60.00
2022-10-17T04:00:47.471Z,58.00
2022-10-17T04:03:19.265Z,57.06
2022-10-17T04:05:52.209Z,57.89
2022-10-17T04:08:24.155Z,59.07
2022-10-17T04:11:09.008Z,60.12
2022-10-17T04:13:40.913Z,63.44
2022-10-17T04:16:16.664Z,66.19
2022-10-17T04:19:00.439Z,65.35
2022-10-17T04:21:35.065Z,64.44
2022-10-17T04:24:13.191Z,61.98
2022-10-17T04:27:00.243Z,60.80
2022-10-17T04:29:34.182Z,59.96
2022-10-17T04:32:12.234Z,58.01
2022-10-17T04:34:51.506Z,57.16
2022-10-17T04:37:24.762Z,58.22
2022-10-17T04:39:57.701Z,59.42
2022-10-17T04:42:31.410Z,60.53
2022-10-17T04:45:03.374Z,63.30
2022-10-17T04:47:35.487Z,66.05
2022-10-17T04:50:08.402Z,65.45
2022-10-17T04:52:40.443Z,63.87
2022-10-17T04:55:13.293Z,62.38
2022-10-17T04:57:45.317Z,61.66
2022-10-17T05:00:22.503Z,60.91
2022-10-17T05:03:03.006Z,60.23
2022-10-17T05:05:35.251Z,58.44
2022-10-17T05:08:07.596Z,57.48
2022-10-17T05:10:46.168Z,58.36
2022-10-17T05:13:18.771Z,59.22
2022-10-17T05:15:50.872Z,60.60
2022-10-17T05:18:25.385Z,63.59
2022-10-17T05:20:57.703Z,65.71
2022-10-17T05:23:32.091Z,65.58
2022-10-17T05:26:04.826Z,63.93
2022-10-17T05:28:37.326Z,61.76
2022-10-17T05:31:11.232Z,58.72
2022-10-17T05:33:45.001Z,56.71
2022-10-17T05:36:17.283Z,57.25
2022-10-17T05:38:53.178Z,58.04
2022-10-17T05:41:24.949Z,59.48
2022-10-17T05:43:59.417Z,60.35
2022-10-17T05:46:42.650Z,64.77
2022-10-17T05:49:32.198Z,66.07
2022-10-17T05:52:05.877Z,63.67
2022-10-17T05:54:42.151Z,60.83
2022-10-17T05:57:13.931Z,57.65
2022-10-17T05:59:46.109Z,55.97
2022-10-17T06:02:21.842Z,56.34
2022-10-17T06:04:54.013Z,57.39
2022-10-17T06:07:27.955Z,58.28
2022-10-17T06:09:59.841Z,59.18
2022-10-17T06:12:31.786Z,59.95
2022-10-17T06:15:04.239Z,60.59
2022-10-17T06:17:36.180Z,64.49
2022-10-17T06:20:09.578Z,65.79
2022-10-17T06:22:41.641Z,62.95
2022-10-17T06:25:18.905Z,58.80
2022-10-17T06:27:50.788Z,56.33
2022-10-17T06:30:23.124Z,56.29
2022-10-17T06:32:55.678Z,57.23
2022-10-17T06:35:27.611Z,57.73
2022-10-17T06:37:59.602Z,58.61
2022-10-17T06:40:31.633Z,59.16
2022-10-17T06:43:04.335Z,59.90
2022-10-17T06:46:02.117Z,60.26
2022-10-17T06:48:42.454Z,60.81
2022-10-17T06:51:23.201Z,64.02
2022-10-17T06:54:00.024Z,65.20
2022-10-17T06:56:50.560Z,62.33
2022-10-17T06:59:35.042Z,57.09
2022-10-17T07:02:15.251Z,54.66
2022-10-17T07:04:49.650Z,54.66
2022-10-17T07:07:21.549Z,55.06
2022-10-17T07:09:54.351Z,56.38
2022-10-17T07:12:26.383Z,56.47
2022-10-17T07:14:58.179Z,57.46
2022-10-17T07:17:30.439Z,57.98
2022-10-17T07:20:02.504Z,58.04
2022-10-17T07:22:37.221Z,59.44
2022-10-17T07:25:11.469Z,59.29
2022-10-17T07:27:55.738Z,59.53
2022-10-17T07:30:28.419Z,59.33
2022-10-17T07:33:14.204Z,59.70
2022-10-17T07:35:46.116Z,60.07
2022-10-17T07:38:18.128Z,60.06
2022-10-17T07:40:56.661Z,59.80
2022-10-17T07:43:29.446Z,60.34
2022-10-17T07:46:01.951Z,60.34
2022-10-17T07:48:34.769Z,60.17
2022-10-17T07:51:08.207Z,60.35
2022-10-17T07:53:42.754Z,60.03
2022-10-17T07:56:16.902Z,59.87
2022-10-17T07:58:49.253Z,60.24
2022-10-17T08:01:21.501Z,60.56
2022-10-17T08:03:53.821Z,60.41
2022-10-17T08:06:26.059Z,60.78
2022-10-17T08:08:59.691Z,60.79
2022-10-17T08:11:31.548Z,60.42
2022-10-17T08:14:03.240Z,60.04
2022-10-17T08:16:35.208Z,60.21
2022-10-17T08:21:46.965Z,59.81
2022-10-17T08:24:18.695Z,60.05
2022-10-17T08:26:51.878Z,59.79
2022-10-17T08:29:24.191Z,59.59
2022-10-17T08:32:00.904Z,59.34
2022-10-17T08:34:33.554Z,59.62
2022-10-17T08:37:05.420Z,59.61
2022-10-17T08:39:37.206Z,59.29
2022-10-17T08:42:46.202Z,58.82
2022-10-17T08:45:26.134Z,58.91
2022-10-17T08:48:01.459Z,59.04
2022-10-17T08:50:40.061Z,59.30
2022-10-17T08:53:21.055Z,58.94
2022-10-17T08:55:54.950Z,58.34
2022-10-17T08:58:30.109Z,58.33
2022-10-17T09:01:12.853Z,58.65
2022-10-17T09:03:54.770Z,57.96
2022-10-17T09:06:30.896Z,57.79
2022-10-17T09:09:22.038Z,57.51
2022-10-17T09:12:11.113Z,57.28
2022-10-17T09:15:13.673Z,57.57
2022-10-17T09:17:54.663Z,57.61
2022-10-17T09:20:30.152Z,56.66
2022-10-17T09:23:06.989Z,56.34
2022-10-17T09:25:46.997Z,56.36
2022-10-17T09:28:23.595Z,55.96
2022-10-17T09:31:01.846Z,55.79
2022-10-17T09:33:53.214Z,55.63
2022-10-17T09:36:29.258Z,55.76
2022-10-17T09:39:01.954Z,55.84
2022-10-17T09:41:46.784Z,56.02
2022-10-17T09:44:25.006Z,56.02
2022-10-17T09:47:21.506Z,55.35
2022-10-17T09:49:54.017Z,55.16
2022-10-17T09:52:42.045Z,54.85
2022-10-17T09:55:22.374Z,54.90
2022-10-17T09:58:01.947Z,54.36
2022-10-17T10:00:36.666Z,54.47
2022-10-17T10:03:20.710Z,54.37
2022-10-17T10:06:04.588Z,54.31
2022-10-17T10:08:38.138Z,54.11
2022-10-17T10:11:14.057Z,53.76
2022-10-17T10:13:49.633Z,53.65
2022-10-17T10:16:26.695Z,53.63
2022-10-17T10:18:58.859Z,53.82
2022-10-17T10:21:30.839Z,53.24
2022-10-17T10:24:15.059Z,53.42
2022-10-17T10:26:48.992Z,53.30
2022-10-17T10:29:31.166Z,53.35
2022-10-17T10:32:13.645Z,53.14
2022-10-17T10:34:51.505Z,53.28
2022-10-17T10:37:26.366Z,52.63
2022-10-17T10:40:00.504Z,52.51
2022-10-17T10:42:36.711Z,52.44
2022-10-17T10:45:42.765Z,52.03
2022-10-17T10:48:22.932Z,52.51
2022-10-17T10:50:58.286Z,51.74
2022-10-17T10:53:39.364Z,52.15
2022-10-17T10:56:18.269Z,52.10
2022-10-17T10:58:59.845Z,51.98
2022-10-17T11:01:36.778Z,51.72
2022-10-17T11:04:24.578Z,51.97
2022-10-17T11:07:03.342Z,51.74
2022-10-17T11:09:47.626Z,51.30
2022-10-17T11:12:26.675Z,50.99
2022-10-17T11:15:04.424Z,51.32
2022-10-17T11:17:41.650Z,51.56
2022-10-17T11:20:22.483Z,51.13
2022-10-17T11:23:01.572Z,51.37
2022-10-17T11:25:37.706Z,51.10
2022-10-17T11:28:16.159Z,50.82
2022-10-17T11:31:03.360Z,50.89
2022-10-17T11:33:47.234Z,51.28
2022-10-17T11:36:22.601Z,51.20
2022-10-17T11:39:00.017Z,50.20
2022-10-17T11:41:37.320Z,51.25
2022-10-17T11:44:19.523Z,51.02
2022-10-17T11:46:56.804Z,51.30
2022-10-17T11:49:38.428Z,51.17
2022-10-17T11:52:51.236Z,51.10
2022-10-17T11:55:22.288Z,50.97
2022-10-17T11:58:09.797Z,51.06
2022-10-17T12:00:54.494Z,50.98
2022-10-17T12:03:47.511Z,50.05
2022-10-17T12:06:31.159Z,49.97
2022-10-17T12:09:11.574Z,49.35
2022-10-17T12:11:54.284Z,49.51
2022-10-17T12:14:44.177Z,49.06
2022-10-17T12:17:33.024Z,48.91
2022-10-17T12:20:30.591Z,48.70
2022-10-17T12:23:18.549Z,49.02
2022-10-17T12:25:58.200Z,48.42
2022-10-17T12:28:42.639Z,48.10
2022-10-17T12:31:32.532Z,48.17
2022-10-17T12:34:06.763Z,48.46
2022-10-17T12:36:42.280Z,48.22
2022-10-17T12:39:53.472Z,48.29
2022-10-17T12:42:49.195Z,48.29
2022-10-17T12:45:48.917Z,47.86
2022-10-17T12:48:55.386Z,48.02
2022-10-17T12:51:35.871Z,47.86
2022-10-17T12:54:15.218Z,47.57
2022-10-17T12:56:50.401Z,47.57
2022-10-17T12:59:26.684Z,47.54
2022-10-17T13:02:01.795Z,47.76
2022-10-17T13:04:38.931Z,48.11
2022-10-17T13:07:20.945Z,47.58
2022-10-17T13:09:53.433Z,47.73
2022-10-17T13:12:28.625Z,47.75
2022-10-17T13:15:01.000Z,47.69
2022-10-17T13:17:33.333Z,47.79
2022-10-17T13:20:05.464Z,47.78
2022-10-17T13:22:46.024Z,47.67
2022-10-17T13:25:20.001Z,48.10
2022-10-17T13:27:54.112Z,47.80
2022-10-17T13:30:31.239Z,47.87
2022-10-17T13:33:05.243Z,47.68
2022-10-17T13:35:59.364Z,48.11
2022-10-17T13:38:35.633Z,48.09
2022-10-17T13:44:13.848Z,48.11
2022-10-17T13:46:46.418Z,47.81
2022-10-17T13:49:26.203Z,47.89
2022-10-17T13:52:01.580Z,47.72
2022-10-17T13:54:40.337Z,47.80
2022-10-17T13:57:22.263Z,47.98
2022-10-17T13:59:58.132Z,48.47
2022-10-17T14:02:31.831Z,48.45
2022-10-17T14:05:22.988Z,48.42
2022-10-17T14:08:16.703Z,48.50
2022-10-17T14:10:48.666Z,48.49
2022-10-17T14:13:24.825Z,48.41
2022-10-17T14:16:01.551Z,48.61
2022-10-17T14:18:36.878Z,48.92
2022-10-17T14:24:27.416Z,49.12
2022-10-17T14:27:00.944Z,49.21
2022-10-17T14:29:50.670Z,49.38
2022-10-17T14:32:23.581Z,49.56
2022-10-17T14:35:10.774Z,49.70
2022-10-17T14:37:52.138Z,50.00
2022-10-17T14:40:27.192Z,50.22
2022-10-17T14:43:00.353Z,50.35
2022-10-17T14:45:34.874Z,50.47
2022-10-17T14:48:13.015Z,50.74
2022-10-17T14:51:05.024Z,50.91
2022-10-17T14:53:37.173Z,51.15
2022-10-17T14:56:25.668Z,51.42
2022-10-17T14:58:57.603Z,51.46
2022-10-17T15:01:29.261Z,51.99
2022-10-17T15:04:00.959Z,52.22
2022-10-17T15:06:34.509Z,52.39
2022-10-17T15:09:06.596Z,52.67
2022-10-17T15:11:38.545Z,52.94
2022-10-17T15:14:10.204Z,53.26
2022-10-17T15:16:41.889Z,53.59
2022-10-17T15:19:15.283Z,53.93
2022-10-17T15:21:47.463Z,54.43
2022-10-17T15:24:19.791Z,54.76
2022-10-17T15:26:51.502Z,55.15
2022-10-17T15:29:23.215Z,55.52
2022-10-17T15:31:54.874Z,56.03
2022-10-17T15:34:26.642Z,56.49
2022-10-17T15:36:58.869Z,56.87
2022-10-17T15:39:30.557Z,57.19
2022-10-17T15:42:02.275Z,57.59
2022-10-17T15:44:34.001Z,58.17
2022-10-17T15:47:06.766Z,58.54
2022-10-17T15:49:38.479Z,58.79
2022-10-17T15:52:11.302Z,59.22
2022-10-17T15:54:42.951Z,59.99
2022-10-17T15:57:20.752Z,60.60
2022-10-17T15:59:53.640Z,60.98
2022-10-17T16:02:26.367Z,65.05
2022-10-17T16:04:58.014Z,66.76
2022-10-17T16:07:29.876Z,64.61
2022-10-17T16:10:01.878Z,62.17
2022-10-17T16:12:38.006Z,57.94
2022-10-17T16:15:14.245Z,55.44
2022-10-17T16:17:46.041Z,55.48
2022-10-17T16:20:17.945Z,56.03
2022-10-17T16:22:50.178Z,56.86
2022-10-17T16:25:24.610Z,57.55
2022-10-17T16:27:58.099Z,58.23
2022-10-17T16:30:32.548Z,58.97
2022-10-17T16:33:04.362Z,59.61
2022-10-17T16:35:37.636Z,60.28
2022-10-17T16:38:10.203Z,60.87
2022-10-17T16:40:42.252Z,64.55
2022-10-17T16:43:15.132Z,66.49
2022-10-17T16:45:46.815Z,64.20
2022-10-17T16:48:18.535Z,61.94
2022-10-17T16:50:50.301Z,58.60
2022-10-17T16:53:21.990Z,56.39
2022-10-17T16:56:02.873Z,56.61
2022-10-17T16:58:34.611Z,57.40
2022-10-17T17:01:09.639Z,58.53
2022-10-17T17:06:31.791Z,59.77
2022-10-17T17:09:03.471Z,60.64
2022-10-17T17:11:35.123Z,64.17
2022-10-17T17:14:07.999Z,66.22
2022-10-17T17:16:44.446Z,64.22
2022-10-17T17:19:17.929Z,61.93
2022-10-17T17:21:50.931Z,57.90
2022-10-17T17:24:23.475Z,56.17
2022-10-17T17:26:57.541Z,56.57
2022-10-17T17:29:29.383Z,57.35
2022-10-17T17:32:01.135Z,58.32
2022-10-17T17:34:36.429Z,58.93
2022-10-17T17:37:08.159Z,59.74
2022-10-17T17:39:40.229Z,60.60
2022-10-17T17:42:12.017Z,64.19
2022-10-17T17:44:43.669Z,65.95
2022-10-17T17:47:15.450Z,63.66
2022-10-17T17:49:47.102Z,59.01
2022-10-17T17:52:18.775Z,56.17
2022-10-17T17:54:51.965Z,56.32
2022-10-17T17:57:23.807Z,57.05
2022-10-17T17:59:55.586Z,57.85
2022-10-17T18:02:27.359Z,58.88
2022-10-17T18:04:59.028Z,59.75
2022-10-17T18:07:31.120Z,60.41
2022-10-17T18:10:02.900Z,63.70
2022-10-17T18:12:35.621Z,65.90
2022-10-17T18:15:11.760Z,63.41
2022-10-17T18:17:43.842Z,60.65
2022-10-17T18:20:16.285Z,56.61
2022-10-17T18:22:48.012Z,54.96
2022-10-17T18:25:19.800Z,55.44
2022-10-17T18:27:51.490Z,56.57
2022-10-17T18:30:25.917Z,57.61
2022-10-17T18:32:59.634Z,58.39
2022-10-17T18:35:31.430Z,59.42
2022-10-17T18:38:03.136Z,60.25
2022-10-17T18:40:34.968Z,63.97
2022-10-17T18:43:06.744Z,65.60
2022-10-17T18:45:40.354Z,63.06
2022-10-17T18:48:12.058Z,60.56
2022-10-17T18:50:43.755Z,57.43
2022-10-17T18:53:15.402Z,55.75
2022-10-17T18:58:24.575Z,56.95
2022-10-17T19:00:56.259Z,58.12
2022-10-17T19:03:27.934Z,59.26
2022-10-17T19:06:03.503Z,60.17
2022-10-17T19:08:35.318Z,60.85
2022-10-17T19:11:09.676Z,64.58
2022-10-17T19:13:41.731Z,66.21
2022-10-17T19:16:14.845Z,63.83
2022-10-17T19:18:49.754Z,61.61
2022-10-17T19:21:22.418Z,57.55
2022-10-17T19:23:56.966Z,55.37
2022-10-17T19:26:31.440Z,55.82
2022-10-17T19:29:03.701Z,56.71
2022-10-17T19:31:36.483Z,57.61
2022-10-17T19:34:08.331Z,58.79
2022-10-17T19:36:41.682Z,59.57
2022-10-17T19:39:15.990Z,60.45
2022-10-17T19:41:49.024Z,64.37
2022-10-17T19:44:20.973Z,66.12
2022-10-17T19:46:52.712Z,63.44
2022-10-17T19:49:24.788Z,61.12
2022-10-17T19:51:56.617Z,57.50
2022-10-17T19:54:28.297Z,55.77
2022-10-17T19:57:00.086Z,56.34
2022-10-17T19:59:31.825Z,57.40
2022-10-17T20:02:03.748Z,58.52
2022-10-17T20:04:35.567Z,59.19
2022-10-17T20:07:07.286Z,60.17
2022-10-17T20:09:39.035Z,64.10
2022-10-17T20:12:10.703Z,65.39
2022-10-17T20:14:42.444Z,63.23
2022-10-17T20:17:14.097Z,61.27
2022-10-17T20:19:46.159Z,57.80
2022-10-17T20:22:17.838Z,55.95
2022-10-17T20:24:50.018Z,56.46
2022-10-17T20:27:26.857Z,57.44
2022-10-17T20:30:01.931Z,58.21
2022-10-17T20:32:39.419Z,59.36
2022-10-17T20:35:11.906Z,60.37
2022-10-17T20:37:43.932Z,63.76
2022-10-17T20:40:34.292Z,65.86
2022-10-17T20:43:07.833Z,63.66
2022-10-17T20:45:51.766Z,61.34
2022-10-17T20:48:24.357Z,57.77
2022-10-17T20:50:56.225Z,56.06
2022-10-17T20:53:43.335Z,56.66
2022-10-17T20:56:22.264Z,57.31
2022-10-17T20:58:55.624Z,58.29
2022-10-17T21:01:28.439Z,59.59
2022-10-17T21:04:15.891Z,60.32
2022-10-17T21:06:53.560Z,64.29
2022-10-17T21:09:25.663Z,65.71
2022-10-17T21:11:57.397Z,63.58
2022-10-17T21:14:29.084Z,60.87
2022-10-17T21:17:04.809Z,57.05
2022-10-17T21:19:37.027Z,55.43
2022-10-17T21:22:08.739Z,56.16
2022-10-17T21:24:40.482Z,57.25
2022-10-17T21:27:17.880Z,58.28
2022-10-17T21:29:50.257Z,58.96
2022-10-17T21:32:47.240Z,60.20
2022-10-17T21:35:13.645Z,63.90
2022-10-17T21:37:45.381Z,65.31
2022-10-17T21:40:17.877Z,63.39
2022-10-17T21:42:49.513Z,60.81
2022-10-17T21:45:25.835Z,57.08
2022-10-17T21:48:13.580Z,55.24
2022-10-17T21:50:45.541Z,55.63
2022-10-17T21:53:17.301Z,56.77
2022-10-17T21:55:48.943Z,57.83
2022-10-17T21:58:21.131Z,58.83
2022-10-17T22:00:52.813Z,59.69
2022-10-17T22:03:25.021Z,60.56
2022-10-17T22:06:07.048Z,63.99
2022-10-17T22:08:49.533Z,66.49
2022-10-17T22:11:23.163Z,63.56
2022-10-17T22:13:58.378Z,61.08
2022-10-17T22:16:30.528Z,58.05
2022-10-17T22:19:06.410Z,56.30
2022-10-17T22:21:39.266Z,56.69
2022-10-17T22:24:14.162Z,57.67
2022-10-17T22:26:47.397Z,58.31
2022-10-17T22:29:19.178Z,59.50
2022-10-17T22:31:50.887Z,60.28
2022-10-17T22:34:22.589Z,63.56
2022-10-17T22:36:54.706Z,65.94
2022-10-17T22:39:26.587Z,63.96
2022-10-17T22:41:58.436Z,61.34
2022-10-17T22:44:30.121Z,57.56
2022-10-17T22:47:01.789Z,55.79
2022-10-17T22:49:34.737Z,56.15
2022-10-17T22:52:06.688Z,57.10
2022-10-17T22:54:38.357Z,58.04
2022-10-17T22:57:10.086Z,59.16
2022-10-17T22:59:41.803Z,60.09
2022-10-17T23:02:13.469Z,60.93
2022-10-17T23:04:46.390Z,64.22
2022-10-17T23:07:18.236Z,66.07
2022-10-17T23:09:49.939Z,64.36
2022-10-17T23:12:21.637Z,61.70
2022-10-17T23:14:53.416Z,57.54
2022-10-17T23:17:25.095Z,55.49
2022-10-17T23:19:57.831Z,55.87
2022-10-17T23:22:29.867Z,57.13
2022-10-17T23:25:01.707Z,57.79
2022-10-17T23:27:34.867Z,58.79
2022-10-17T23:30:08.146Z,59.50
2022-10-17T23:32:39.843Z,60.43
2022-10-17T23:35:12.319Z,63.58
2022-10-17T23:37:44.130Z,65.30
2022-10-17T23:40:16.463Z,63.69
2022-10-17T23:42:48.111Z,61.46
2022-10-17T23:45:20.838Z,58.30
2022-10-17T23:47:52.747Z,56.53
2022-10-17T23:50:24.529Z,57.17
2022-10-17T23:52:56.166Z,57.88
2022-10-17T23:55:27.804Z,59.02
2022-10-17T23:57:59.598Z,59.80
